createdAt,value
2019-03-27T00:00:48.615Z,5.41
2019-03-27T00:01:50.204Z,5.46
2019-03-27T00:02:50.684Z,5.49
2019-03-27T00:03:51.440Z,5.55
2019-03-27T00:04:52.474Z,5.55
2019-03-27T00:05:53.224Z,5.58
2019-03-27T00:06:54.260Z,5.55
2019-03-27T00:07:55.021Z,5.58
2019-03-27T00:08:55.500Z,5.49
2019-03-27T00:09:55.976Z,5.41
2019-03-27T00:10:56.899Z,5.43
2019-03-27T00:11:57.647Z,5.38
2019-03-27T00:12:58.693Z,5.38
2019-03-27T00:13:59.442Z,5.44
2019-03-27T00:15:14.539Z,5.4
2019-03-27T00:15:21.075Z,5.4
2019-03-27T00:16:20.921Z,5.38
2019-03-27T00:17:21.122Z,5.36
2019-03-27T00:18:21.611Z,5.44
2019-03-27T00:19:22.085Z,5.41
2019-03-27T00:20:23.119Z,5.43
2019-03-27T00:21:23.316Z,5.4
2019-03-27T00:22:23.897Z,5.38
2019-03-27T00:23:24.208Z,5.44
2019-03-27T00:24:25.244Z,5.36
2019-03-27T00:25:25.711Z,5.33
2019-03-27T00:33:34.938Z,5.31
2019-03-27T00:34:36.247Z,5.23
2019-03-27T00:35:37.007Z,5.22
2019-03-27T00:36:37.844Z,5.25
2019-03-27T00:37:38.209Z,5.22
2019-03-27T00:38:39.258Z,5.29
2019-03-27T00:39:39.309Z,5.22
2019-03-27T00:40:40.343Z,5.26
2019-03-27T00:41:41.118Z,5.33
2019-03-27T00:42:41.635Z,5.25
2019-03-27T00:43:42.389Z,5.37
2019-03-27T00:44:42.586Z,5.22
2019-03-27T00:45:43.623Z,5.28
2019-03-27T00:46:44.381Z,5.28
2019-03-27T00:47:45.454Z,5.31
2019-03-27T00:48:45.487Z,5.37
2019-03-27T00:49:46.027Z,5.37
2019-03-27T00:50:46.505Z,5.31
2019-03-27T00:51:47.646Z,5.31
2019-03-27T00:52:48.410Z,5.26
2019-03-27T00:53:48.886Z,5.26
2019-03-27T00:54:49.154Z,5.2
2019-03-27T00:55:49.922Z,5.25
2019-03-27T00:56:50.403Z,5.29
2019-03-27T00:57:50.873Z,5.2
2019-03-27T00:58:51.632Z,5.25
2019-03-27T00:59:52.390Z,5.2
2019-03-27T01:00:53.697Z,5.16
2019-03-27T01:01:54.176Z,5.16
2019-03-27T01:02:55.508Z,5.12
2019-03-27T01:03:55.026Z,5.1
2019-03-27T01:04:55.749Z,5.19
2019-03-27T01:05:56.836Z,5.12
2019-03-27T01:06:57.292Z,5.16
2019-03-27T01:07:58.850Z,5.08
2019-03-27T01:09:00.145Z,5.1
2019-03-27T01:10:02.897Z,5.05
2019-03-27T01:11:04.171Z,5.05
2019-03-27T01:12:04.538Z,5.02
2019-03-27T01:13:05.135Z,5.01
2019-03-27T01:14:05.505Z,5.08
2019-03-27T01:15:06.763Z,5.22
2019-03-27T01:16:07.603Z,5.23
2019-03-27T01:17:09.502Z,5.25
2019-03-27T01:18:10.223Z,5.18
2019-03-27T01:19:10.703Z,5.29
2019-03-27T01:20:11.388Z,5.33
2019-03-27T01:21:12.545Z,5.29
2019-03-27T01:22:12.944Z,5.22
2019-03-27T01:23:14.477Z,5.08
2019-03-27T01:24:14.558Z,5.1
2019-03-27T01:25:15.796Z,4.97
2019-03-27T01:26:16.856Z,4.9
2019-03-27T01:27:17.517Z,4.94
2019-03-27T01:28:19.205Z,4.9
2019-03-27T01:29:20.025Z,4.97
2019-03-27T01:30:21.132Z,4.9
2019-03-27T01:31:22.327Z,5.05
2019-03-27T01:32:23.290Z,5
2019-03-27T01:33:25.036Z,5
2019-03-27T01:34:25.028Z,4.95
2019-03-27T01:35:27.423Z,4.92
2019-03-27T01:36:27.692Z,4.95
2019-03-27T01:37:28.895Z,5.04
2019-03-27T01:38:30.018Z,4.97
2019-03-27T01:39:31.195Z,5.02
2019-03-27T01:40:30.895Z,5.04
2019-03-27T01:41:33.015Z,5.04
2019-03-27T01:42:33.726Z,5.08
2019-03-27T01:43:34.844Z,5.04
2019-03-27T01:44:35.168Z,5.05
2019-03-27T01:45:34.840Z,5.05
2019-03-27T01:46:35.661Z,5.13
2019-03-27T01:47:36.140Z,5.15
2019-03-27T01:48:36.373Z,5.12
2019-03-27T01:49:37.696Z,5.1
2019-03-27T01:50:38.251Z,4.98
2019-03-27T01:51:38.815Z,4.94
2019-03-27T01:52:39.569Z,5.01
2019-03-27T01:53:40.043Z,5.02
2019-03-27T01:54:41.080Z,4.97
2019-03-27T01:55:41.841Z,5
2019-03-27T01:56:43.158Z,4.9
2019-03-27T01:57:43.355Z,5.02
2019-03-27T01:58:44.136Z,5.02
2019-03-27T01:59:45.173Z,5.02
2019-03-27T02:00:46.253Z,4.9
2019-03-27T02:01:47.568Z,4.97
2019-03-27T02:02:48.326Z,5.02
2019-03-27T02:03:48.810Z,5.04
2019-03-27T02:04:49.911Z,4.83
2019-03-27T02:05:50.111Z,4.95
2019-03-27T02:06:50.593Z,4.86
2019-03-27T02:07:51.637Z,4.87
2019-03-27T02:08:52.110Z,4.87
2019-03-27T02:09:51.866Z,4.83
2019-03-27T02:10:52.626Z,4.89
2019-03-27T02:11:53.658Z,4.84
2019-03-27T02:12:53.863Z,4.89
2019-03-27T02:13:54.621Z,4.89
2019-03-27T02:14:55.096Z,5.01
2019-03-27T02:16:08.143Z,4.86
2019-03-27T02:17:05.840Z,4.95
2019-03-27T02:18:06.319Z,4.92
2019-03-27T02:19:07.083Z,4.95
2019-03-27T02:20:07.840Z,4.87
2019-03-27T02:21:08.990Z,4.92
2019-03-27T02:22:09.813Z,4.87
2019-03-27T02:23:11.125Z,4.89
2019-03-27T02:24:11.608Z,4.82
2019-03-27T02:25:12.431Z,4.87
2019-03-27T02:26:13.743Z,4.83
2019-03-27T02:27:14.125Z,4.84
2019-03-27T02:28:14.879Z,4.87
2019-03-27T02:29:15.355Z,4.87
2019-03-27T02:30:16.143Z,4.92
2019-03-27T02:31:17.305Z,4.9
2019-03-27T02:32:22.423Z,4.89
2019-03-27T02:32:27.533Z,4.9
2019-03-27T02:33:29.153Z,4.86
2019-03-27T02:34:30.027Z,4.87
2019-03-27T02:35:30.365Z,4.87
2019-03-27T02:36:31.425Z,4.87
2019-03-27T02:37:31.478Z,4.87
2019-03-27T02:38:32.865Z,4.9
2019-03-27T02:39:33.788Z,4.87
2019-03-27T02:40:34.687Z,4.84
2019-03-27T02:41:35.313Z,4.83
2019-03-27T02:42:36.002Z,4.89
2019-03-27T02:43:37.441Z,5.01
2019-03-27T02:44:37.779Z,4.84
2019-03-27T02:45:38.116Z,4.98
2019-03-27T02:46:39.442Z,5.01
2019-03-27T02:47:40.324Z,5.02
2019-03-27T02:48:41.105Z,4.92
2019-03-27T02:49:42.285Z,4.94
2019-03-27T02:50:42.919Z,4.83
2019-03-27T02:51:42.982Z,4.89
2019-03-27T02:52:43.580Z,4.82
2019-03-27T02:53:43.550Z,4.9
2019-03-27T02:54:44.893Z,4.83
2019-03-27T02:55:44.670Z,4.84
2019-03-27T02:56:46.025Z,4.83
2019-03-27T02:57:46.927Z,4.83
2019-03-27T02:58:47.644Z,4.79
2019-03-27T02:59:48.695Z,4.86
2019-03-27T03:00:50.315Z,4.82
2019-03-27T03:01:50.389Z,4.79
2019-03-27T03:02:51.196Z,4.82
2019-03-27T03:03:51.357Z,4.84
2019-03-27T03:04:52.498Z,4.78
2019-03-27T03:05:53.757Z,4.86
2019-03-27T03:06:54.680Z,4.79
2019-03-27T03:07:55.734Z,4.79
2019-03-27T03:08:57.104Z,4.86
2019-03-27T03:09:56.878Z,4.86
2019-03-27T03:10:58.320Z,4.83
2019-03-27T03:11:59.270Z,4.82
2019-03-27T03:12:59.869Z,4.87
2019-03-27T03:14:00.486Z,4.83
2019-03-27T03:15:01.438Z,4.87
2019-03-27T03:16:02.484Z,4.79
2019-03-27T03:17:02.903Z,4.9
2019-03-27T03:18:04.540Z,4.87
2019-03-27T03:19:05.329Z,4.86
2019-03-27T03:20:06.675Z,4.79
2019-03-27T03:21:07.588Z,4.79
2019-03-27T03:22:08.179Z,4.82
2019-03-27T03:23:09.060Z,4.78
2019-03-27T03:24:09.462Z,4.74
2019-03-27T03:25:10.784Z,4.78
2019-03-27T03:26:11.414Z,4.86
2019-03-27T03:27:12.122Z,4.9
2019-03-27T03:28:13.318Z,4.82
2019-03-27T03:29:13.645Z,4.84
2019-03-27T03:30:15.160Z,4.84
2019-03-27T03:31:15.433Z,4.87
2019-03-27T03:32:15.741Z,4.9
2019-03-27T03:33:16.669Z,4.9
2019-03-27T03:34:17.521Z,4.83
2019-03-27T03:35:19.200Z,4.87
2019-03-27T03:36:20.049Z,4.78
2019-03-27T03:37:21.384Z,4.84
2019-03-27T03:38:21.714Z,4.84
2019-03-27T03:39:22.898Z,4.84
2019-03-27T03:40:23.789Z,4.94
2019-03-27T03:41:24.214Z,4.83
2019-03-27T03:42:25.943Z,4.86
2019-03-27T03:43:26.274Z,4.79
2019-03-27T03:44:27.141Z,4.57
2019-03-27T03:45:28.617Z,4.57
2019-03-27T03:46:29.212Z,4.61
2019-03-27T03:47:29.805Z,4.52
2019-03-27T03:48:30.670Z,4.43
2019-03-27T03:49:31.550Z,4.4
2019-03-27T03:50:32.699Z,4.31
2019-03-27T03:51:33.579Z,4.28
2019-03-27T03:52:34.728Z,4.24
2019-03-27T03:53:35.777Z,4.2
2019-03-27T03:54:36.853Z,4.16
2019-03-27T03:55:38.741Z,4.14
2019-03-27T03:56:39.060Z,4.14
2019-03-27T03:57:40.554Z,4.12
2019-03-27T03:58:40.928Z,4.14
2019-03-27T03:59:41.530Z,4.18
2019-03-27T04:00:42.234Z,4.1
2019-03-27T04:01:43.596Z,4.1
2019-03-27T04:02:44.470Z,4.06
2019-03-27T04:03:44.549Z,4.03
2019-03-27T04:04:45.645Z,4
2019-03-27T04:05:47.137Z,4.07
2019-03-27T04:06:47.488Z,4.03
2019-03-27T04:07:47.828Z,4.12
2019-03-27T04:08:48.890Z,4.06
2019-03-27T04:09:49.938Z,4.07
2019-03-27T04:10:51.409Z,4.1
2019-03-27T04:11:52.471Z,4.13
2019-03-27T04:12:52.817Z,4.12
2019-03-27T04:13:53.148Z,4.12
2019-03-27T04:14:54.539Z,4.16
2019-03-27T04:15:55.873Z,4.16
2019-03-27T04:16:56.487Z,4.22
2019-03-27T04:17:57.531Z,4.3
2019-03-27T04:18:57.375Z,4.25
2019-03-27T04:19:59.267Z,4.32
2019-03-27T04:20:59.970Z,4.32
2019-03-27T04:22:00.021Z,4.31
2019-03-27T04:23:00.613Z,4.31
2019-03-27T04:24:02.068Z,4.36
2019-03-27T04:25:03.006Z,4.31
2019-03-27T04:26:13.195Z,4.32
2019-03-27T04:27:13.417Z,4.31
2019-03-27T04:28:14.453Z,4.42
2019-03-27T04:29:15.328Z,4.48
2019-03-27T04:30:15.371Z,4.5
2019-03-27T04:31:16.474Z,4.39
2019-03-27T04:32:17.378Z,4.42
2019-03-27T04:33:18.267Z,4.48
2019-03-27T04:34:19.875Z,4.6
2019-03-27T04:35:20.666Z,4.58
2019-03-27T04:36:21.275Z,4.53
2019-03-27T04:37:23.196Z,4.53
2019-03-27T04:38:23.549Z,4.53
2019-03-27T04:39:24.165Z,4.56
2019-03-27T04:40:25.285Z,4.49
2019-03-27T04:41:26.322Z,4.46
2019-03-27T04:42:26.651Z,4.31
2019-03-27T04:43:27.990Z,4.3
2019-03-27T04:44:28.322Z,4.32
2019-03-27T04:45:29.312Z,4.36
2019-03-27T04:46:30.639Z,4.4
2019-03-27T04:47:33.887Z,4.4
2019-03-27T04:48:35.369Z,4.34
2019-03-27T04:49:35.612Z,4.38
2019-03-27T04:50:35.815Z,4.32
2019-03-27T04:51:36.571Z,4.3
2019-03-27T04:52:37.347Z,4.2
2019-03-27T04:53:37.829Z,4.28
2019-03-27T04:54:38.115Z,4.34
2019-03-27T04:55:38.661Z,4.31
2019-03-27T04:56:39.417Z,4.32
2019-03-27T04:57:39.378Z,4.28
2019-03-27T04:58:39.580Z,4.31
2019-03-27T04:59:40.340Z,4.31
2019-03-27T05:00:40.556Z,4.34
2019-03-27T05:01:40.754Z,4.27
2019-03-27T05:02:41.790Z,4.27
2019-03-27T05:03:41.556Z,4.21
2019-03-27T05:04:42.336Z,4.25
2019-03-27T05:05:42.544Z,4.06
2019-03-27T05:06:43.028Z,4.07
2019-03-27T05:07:44.178Z,4.02
2019-03-27T05:08:44.941Z,3.99
2019-03-27T05:09:45.986Z,4
2019-03-27T05:10:47.022Z,3.99
2019-03-27T05:11:47.813Z,4.06
2019-03-27T05:12:49.428Z,4.07
2019-03-27T05:13:49.464Z,4.12
2019-03-27T05:14:50.795Z,4.2
2019-03-27T05:15:51.002Z,4.24
2019-03-27T05:16:51.486Z,4.18
2019-03-27T05:17:52.742Z,4.21
2019-03-27T05:18:53.220Z,4.21
2019-03-27T05:19:54.255Z,4.16
2019-03-27T05:20:54.739Z,4.25
2019-03-27T05:21:55.497Z,4.22
2019-03-27T05:22:55.828Z,4.21
2019-03-27T05:23:56.650Z,4.21
2019-03-27T05:24:57.409Z,4.14
2019-03-27T05:25:58.468Z,4.21
2019-03-27T05:26:59.229Z,4.18
2019-03-27T05:27:59.632Z,4.14
2019-03-27T05:29:00.404Z,4.2
2019-03-27T05:30:01.106Z,4.16
2019-03-27T05:31:01.430Z,4.22
2019-03-27T05:32:01.920Z,4.32
2019-03-27T05:33:02.692Z,4.32
2019-03-27T05:34:04.065Z,4.31
2019-03-27T05:35:04.564Z,4.27
2019-03-27T05:36:05.156Z,4.3
2019-03-27T05:37:05.934Z,4.25
2019-03-27T05:38:06.423Z,4.31
2019-03-27T05:39:07.185Z,4.4
2019-03-27T05:40:07.750Z,4.34
2019-03-27T05:41:08.530Z,4.38
2019-03-27T05:42:09.014Z,4.32
2019-03-27T05:43:09.779Z,4.25
2019-03-27T05:44:10.268Z,4.2
2019-03-27T05:45:11.316Z,4.21
2019-03-27T05:46:11.812Z,4.2
2019-03-27T05:47:12.408Z,4.27
2019-03-27T05:48:01.326Z,4.27
2019-03-27T05:48:06.019Z,4.3
2019-03-27T05:49:06.257Z,4.28
2019-03-27T05:50:07.291Z,4.24
2019-03-27T05:51:08.333Z,4.39
2019-03-27T05:52:09.111Z,4.27
2019-03-27T05:53:09.390Z,4.45
2019-03-27T05:54:10.151Z,4.39
2019-03-27T05:55:10.943Z,4.5
2019-03-27T05:56:11.715Z,4.52
2019-03-27T05:57:12.480Z,4.57
2019-03-27T05:58:12.251Z,4.49
2019-03-27T05:59:13.095Z,4.53
2019-03-27T06:00:13.303Z,4.58
2019-03-27T06:01:14.166Z,4.57
2019-03-27T06:02:15.203Z,4.63
2019-03-27T06:03:15.685Z,4.56
2019-03-27T06:04:16.448Z,4.58
2019-03-27T06:05:17.494Z,4.61
2019-03-27T06:06:18.049Z,4.7
2019-03-27T06:07:19.091Z,4.67
2019-03-27T06:08:19.578Z,4.66
2019-03-27T06:09:20.661Z,4.61
2019-03-27T06:10:21.175Z,4.66
2019-03-27T06:11:21.942Z,4.61
2019-03-27T06:12:22.710Z,4.7
2019-03-27T06:13:23.478Z,4.71
2019-03-27T06:14:24.254Z,4.67
2019-03-27T06:15:24.741Z,4.71
2019-03-27T06:16:25.225Z,4.71
2019-03-27T06:17:25.545Z,4.71
2019-03-27T06:18:25.960Z,4.7
2019-03-27T06:19:26.686Z,4.74
2019-03-27T06:20:28.007Z,4.74
2019-03-27T06:21:28.489Z,4.79
2019-03-27T06:22:29.552Z,4.76
2019-03-27T06:23:30.590Z,4.84
2019-03-27T06:24:31.392Z,4.97
2019-03-27T06:25:32.923Z,4.79
2019-03-27T06:26:33.243Z,4.78
2019-03-27T06:27:34.007Z,4.84
2019-03-27T06:28:34.848Z,4.87
2019-03-27T06:29:35.053Z,4.87
2019-03-27T06:30:35.263Z,4.76
2019-03-27T06:31:36.025Z,4.84
2019-03-27T06:32:36.241Z,4.89
2019-03-27T06:33:37.009Z,4.78
2019-03-27T06:34:37.845Z,4.83
2019-03-27T06:35:38.393Z,4.82
2019-03-27T06:36:38.597Z,4.74
2019-03-27T06:37:39.090Z,4.75
2019-03-27T06:38:39.573Z,4.79
2019-03-27T06:39:39.511Z,4.84
2019-03-27T06:40:41.688Z,4.86
2019-03-27T06:41:41.469Z,4.82
2019-03-27T06:42:42.512Z,4.82
2019-03-27T06:43:43.830Z,4.89
2019-03-27T06:44:44.377Z,4.84
2019-03-27T06:45:44.863Z,4.84
2019-03-27T06:46:45.068Z,4.83
2019-03-27T06:47:45.838Z,4.95
2019-03-27T06:48:46.910Z,4.82
2019-03-27T06:49:47.406Z,4.89
2019-03-27T06:50:47.452Z,4.89
2019-03-27T06:51:48.489Z,5
2019-03-27T06:52:49.261Z,5.02
2019-03-27T06:53:50.659Z,5.05
2019-03-27T06:54:52.153Z,5.12
2019-03-27T06:55:52.427Z,5.08
2019-03-27T06:56:52.923Z,5.18
2019-03-27T06:57:54.066Z,5.19
2019-03-27T06:58:56.335Z,5.2
2019-03-27T06:59:57.275Z,5.28
2019-03-27T07:00:57.586Z,5.31
2019-03-27T07:01:58.084Z,5.36
2019-03-27T07:02:59.132Z,5.49
2019-03-27T07:04:12.210Z,5.55
2019-03-27T07:05:11.081Z,5.69
2019-03-27T07:06:11.289Z,5.58
2019-03-27T07:07:11.776Z,5.73
2019-03-27T07:08:12.913Z,5.69
2019-03-27T07:09:13.748Z,5.79
2019-03-27T07:10:14.512Z,5.77
2019-03-27T07:11:15.562Z,5.74
2019-03-27T07:12:22.707Z,5.91
2019-03-27T07:12:25.717Z,5.84
2019-03-27T07:13:25.929Z,5.9
2019-03-27T07:14:26.994Z,6.05
2019-03-27T07:15:27.761Z,6.05
2019-03-27T07:16:28.251Z,6.15
2019-03-27T07:17:29.012Z,6.1
2019-03-27T07:18:41.496Z,6.2
2019-03-27T07:19:40.150Z,6.13
2019-03-27T07:20:42.788Z,6.1
2019-03-27T07:21:43.580Z,6.12
2019-03-27T07:22:44.078Z,6.17
2019-03-27T07:23:45.196Z,6.34
2019-03-27T07:24:45.046Z,6.2
2019-03-27T07:25:45.614Z,6.36
2019-03-27T07:26:46.392Z,6.19
2019-03-27T07:27:47.155Z,6.29
2019-03-27T07:28:47.210Z,6.29
2019-03-27T07:29:48.068Z,6.2
2019-03-27T07:30:48.669Z,6.1
2019-03-27T07:31:49.719Z,6.05
2019-03-27T07:32:50.837Z,5.99
2019-03-27T07:33:51.882Z,6.01
2019-03-27T07:34:52.375Z,6.16
2019-03-27T07:35:52.928Z,6.12
2019-03-27T07:36:56.870Z,6.07
2019-03-27T07:37:53.917Z,6.07
2019-03-27T07:38:54.706Z,6.06
2019-03-27T07:39:55.080Z,5.94
2019-03-27T07:40:56.145Z,5.95
2019-03-27T07:41:56.907Z,5.91
2019-03-27T07:42:57.160Z,5.91
2019-03-27T07:43:57.924Z,5.92
2019-03-27T07:44:59.249Z,5.88
2019-03-27T07:45:58.949Z,5.87
2019-03-27T07:47:00.274Z,5.84
2019-03-27T07:48:01.073Z,5.88
2019-03-27T07:49:01.851Z,5.79
2019-03-27T07:50:02.116Z,5.8
2019-03-27T07:51:03.218Z,5.88
2019-03-27T07:52:03.557Z,5.87
2019-03-27T07:53:04.330Z,5.91
2019-03-27T07:54:05.382Z,6.02
2019-03-27T07:55:21.040Z,6.02
2019-03-27T07:56:17.834Z,6.05
2019-03-27T07:57:17.873Z,5.99
2019-03-27T07:58:18.640Z,6.15
2019-03-27T07:59:19.407Z,6.1
2019-03-27T08:00:20.257Z,6.13
2019-03-27T08:01:20.468Z,6.22
2019-03-27T08:02:21.516Z,6.17
2019-03-27T08:03:21.557Z,6.16
2019-03-27T08:04:22.604Z,6.2
2019-03-27T08:05:23.648Z,6.2
2019-03-27T08:06:24.139Z,6.1
2019-03-27T08:07:28.442Z,6.22
2019-03-27T08:08:28.927Z,6.28
2019-03-27T08:09:29.412Z,6.36
2019-03-27T08:10:29.903Z,6.34
2019-03-27T08:11:31.246Z,6.38
2019-03-27T08:12:31.068Z,6.53
2019-03-27T08:13:31.268Z,6.56
2019-03-27T08:14:31.756Z,6.74
2019-03-27T08:15:32.803Z,6.78
2019-03-27T08:16:34.033Z,6.95
2019-03-27T08:17:34.823Z,7.11
2019-03-27T08:18:35.313Z,7.23
2019-03-27T08:19:36.366Z,7.67
2019-03-27T08:20:36.854Z,8.02
2019-03-27T08:21:37.626Z,8.42
2019-03-27T08:22:38.116Z,8.96
2019-03-27T08:23:40.023Z,9.33
2019-03-27T08:24:40.509Z,9.74
2019-03-27T08:25:40.553Z,9.85
2019-03-27T08:26:41.230Z,9.94
2019-03-27T08:27:42.637Z,10.1
2019-03-27T08:28:43.426Z,10.21
2019-03-27T08:29:44.191Z,10.23
2019-03-27T08:30:44.958Z,10.45
2019-03-27T08:31:45.728Z,10.41
2019-03-27T08:32:46.499Z,10.46
2019-03-27T08:33:46.994Z,10.17
2019-03-27T08:34:48.051Z,10.17
2019-03-27T08:35:48.542Z,9.94
2019-03-27T08:36:49.372Z,9.82
2019-03-27T08:37:50.146Z,9.49
2019-03-27T08:38:50.648Z,9.49
2019-03-27T08:39:51.762Z,9.39
2019-03-27T08:40:52.258Z,9.19
2019-03-27T08:41:53.346Z,8.97
2019-03-27T08:42:54.410Z,8.84
2019-03-27T08:43:55.477Z,8.78
2019-03-27T08:44:56.804Z,8.89
2019-03-27T08:45:57.868Z,8.9
2019-03-27T08:46:59.064Z,9.15
2019-03-27T08:47:58.921Z,9.12
2019-03-27T08:48:59.964Z,9.31
2019-03-27T08:50:00.867Z,9.33
2019-03-27T08:51:02.190Z,9.4
2019-03-27T08:52:02.126Z,9.44
2019-03-27T08:53:03.097Z,9.55
2019-03-27T08:54:03.867Z,9.69
2019-03-27T08:55:04.368Z,9.74
2019-03-27T08:56:04.586Z,9.85
2019-03-27T08:57:05.285Z,10.07
2019-03-27T08:58:06.304Z,10.21
2019-03-27T08:59:07.618Z,10.49
2019-03-27T09:00:08.206Z,10.62
2019-03-27T09:01:09.888Z,10.57
2019-03-27T09:02:10.661Z,10.61
2019-03-27T09:03:10.305Z,10.68
2019-03-27T09:04:10.772Z,10.68
2019-03-27T09:05:12.289Z,10.76
2019-03-27T09:06:12.671Z,10.86
2019-03-27T09:07:13.614Z,10.87
2019-03-27T09:08:14.151Z,11.08
2019-03-27T09:09:15.547Z,10.95
2019-03-27T09:10:16.090Z,10.92
2019-03-27T09:11:16.714Z,10.75
2019-03-27T09:12:18.039Z,10.65
2019-03-27T09:13:18.095Z,10.86
2019-03-27T09:14:19.416Z,10.58
2019-03-27T09:15:19.743Z,10.58
2019-03-27T09:16:20.346Z,10.68
2019-03-27T09:17:20.855Z,10.98
2019-03-27T09:18:21.680Z,11.33
2019-03-27T09:19:37.183Z,11.45
2019-03-27T09:20:33.859Z,11.4
2019-03-27T09:21:34.364Z,11.37
2019-03-27T09:22:35.336Z,11.59
2019-03-27T09:23:35.479Z,11.7
2019-03-27T09:24:36.808Z,12.02
2019-03-27T09:25:37.587Z,12.08
2019-03-27T09:26:38.363Z,12.02
2019-03-27T09:27:39.133Z,11.62
2019-03-27T09:28:39.991Z,11.16
2019-03-27T09:29:41.045Z,11.07
2019-03-27T09:30:41.237Z,10.79
2019-03-27T09:31:46.406Z,10.71
2019-03-27T09:32:47.470Z,10.24
2019-03-27T09:33:48.110Z,10.09
2019-03-27T09:34:49.162Z,9.99
2019-03-27T09:35:50.394Z,9.88
2019-03-27T09:36:50.921Z,10.02
2019-03-27T09:37:51.136Z,10.03
2019-03-27T09:38:51.358Z,10.17
2019-03-27T09:39:51.867Z,10.21
2019-03-27T09:40:53.013Z,10.24
2019-03-27T09:41:53.516Z,10.41
2019-03-27T09:42:54.291Z,10.79
2019-03-27T09:43:55.894Z,11.04
2019-03-27T09:44:56.501Z,11.35
2019-03-27T09:45:57.273Z,11.56
2019-03-27T09:46:58.057Z,11.86
2019-03-27T09:47:59.389Z,12.07
2019-03-27T09:48:59.439Z,12.23
2019-03-27T09:50:00.259Z,12.21
2019-03-27T09:51:01.329Z,12.32
2019-03-27T09:52:01.931Z,12.1
2019-03-27T09:53:02.781Z,11.65
2019-03-27T09:54:03.285Z,11.44
2019-03-27T09:55:04.349Z,11.33
2019-03-27T09:56:20.557Z,11.38
2019-03-27T09:56:25.972Z,11.34
2019-03-27T09:57:26.237Z,11.37
2019-03-27T09:58:26.677Z,11.35
2019-03-27T09:59:27.481Z,11.31
2019-03-27T10:00:28.252Z,10.98
2019-03-27T10:01:29.313Z,10.75
2019-03-27T10:02:29.168Z,10.79
2019-03-27T10:03:29.944Z,10.75
2019-03-27T10:04:31.556Z,10.87
2019-03-27T10:05:32.625Z,10.8
2019-03-27T10:06:33.392Z,10.75
2019-03-27T10:07:33.617Z,10.21
2019-03-27T10:08:33.879Z,10.23
2019-03-27T10:09:34.652Z,10.06
2019-03-27T10:10:34.789Z,9.84
2019-03-27T10:11:35.564Z,9.87
2019-03-27T10:12:36.624Z,9.67
2019-03-27T10:13:37.672Z,9.49
2019-03-27T10:14:38.511Z,9.24
2019-03-27T10:15:38.999Z,9.09
2019-03-27T10:16:40.390Z,9.05
2019-03-27T10:17:41.163Z,8.92
2019-03-27T10:18:47.283Z,8.82
2019-03-27T10:18:52.007Z,8.84
2019-03-27T10:20:04.950Z,8.78
2019-03-27T10:21:02.956Z,8.87
2019-03-27T10:22:04.020Z,8.95
2019-03-27T10:23:04.830Z,8.99
2019-03-27T10:24:06.152Z,8.96
2019-03-27T10:25:06.202Z,8.96
2019-03-27T10:26:06.966Z,8.93
2019-03-27T10:27:07.745Z,9.09
2019-03-27T10:28:08.242Z,9.12
2019-03-27T10:29:09.011Z,9.03
2019-03-27T10:30:09.788Z,9.05
2019-03-27T10:31:10.496Z,9.15
2019-03-27T10:32:11.551Z,9.15
2019-03-27T10:33:15.870Z,9.11
2019-03-27T10:34:12.639Z,9.11
2019-03-27T10:35:13.688Z,9.13
2019-03-27T10:36:13.898Z,9.24
2019-03-27T10:37:15.015Z,9.31
2019-03-27T10:38:16.341Z,9.33
2019-03-27T10:39:16.838Z,9.37
2019-03-27T10:40:17.325Z,9.44
2019-03-27T10:41:18.647Z,9.45
2019-03-27T10:42:19.986Z,9.52
2019-03-27T10:43:20.754Z,9.69
2019-03-27T10:44:21.263Z,9.73
2019-03-27T10:45:22.036Z,9.7
2019-03-27T10:46:22.540Z,9.91
2019-03-27T10:47:23.344Z,9.92
2019-03-27T10:48:25.014Z,9.94
2019-03-27T10:49:25.517Z,9.97
2019-03-27T10:50:26.291Z,9.85
2019-03-27T10:51:26.694Z,9.55
2019-03-27T10:52:28.298Z,9.63
2019-03-27T10:53:28.792Z,9.58
2019-03-27T10:54:29.655Z,9.62
2019-03-27T10:55:29.868Z,9.73
2019-03-27T10:56:30.854Z,9.67
2019-03-27T10:57:30.909Z,9.7
2019-03-27T10:58:31.557Z,9.87
2019-03-27T10:59:32.047Z,9.95
2019-03-27T11:00:32.961Z,10.05
2019-03-27T11:01:34.614Z,10.09
2019-03-27T11:02:44.894Z,10.31
2019-03-27T11:03:46.497Z,10.38
2019-03-27T11:04:46.243Z,10.48
2019-03-27T11:05:47.241Z,10.59
2019-03-27T11:06:47.929Z,10.68
2019-03-27T11:07:49.066Z,10.79
2019-03-27T11:08:50.734Z,10.77
2019-03-27T11:09:50.312Z,10.75
2019-03-27T11:10:50.812Z,10.82
2019-03-27T11:11:51.072Z,10.82
2019-03-27T11:12:51.571Z,10.87
2019-03-27T11:13:52.545Z,10.95
2019-03-27T11:14:53.595Z,10.89
2019-03-27T11:15:54.372Z,10.94
2019-03-27T11:16:54.868Z,11.04
2019-03-27T11:17:55.716Z,11.07
2019-03-27T11:18:58.055Z,11.07
2019-03-27T11:19:06.850Z,11.1
2019-03-27T11:20:06.793Z,11.13
2019-03-27T11:21:07.564Z,11.27
2019-03-27T11:22:08.614Z,11.34
2019-03-27T11:23:09.678Z,11.26
2019-03-27T11:24:10.450Z,11.35
2019-03-27T11:25:11.222Z,11.34
2019-03-27T11:26:12.270Z,11.35
2019-03-27T11:27:13.036Z,11.35
2019-03-27T11:28:13.680Z,11.31
2019-03-27T11:29:13.561Z,11.22
2019-03-27T11:30:14.892Z,10.87
2019-03-27T11:31:15.268Z,10.84
2019-03-27T11:32:16.314Z,10.9
2019-03-27T11:33:17.132Z,10.97
2019-03-27T11:34:17.435Z,10.65
2019-03-27T11:35:18.011Z,10.65
2019-03-27T11:36:18.681Z,10.71
2019-03-27T11:37:19.728Z,10.86
2019-03-27T11:38:21.029Z,10.86
2019-03-27T11:39:25.320Z,10.9
2019-03-27T11:40:22.715Z,10.9
2019-03-27T11:41:23.836Z,11.07
2019-03-27T11:42:24.880Z,11.19
2019-03-27T11:43:25.375Z,11.4
2019-03-27T11:44:26.932Z,11.44
2019-03-27T11:45:27.427Z,11.59
2019-03-27T11:46:28.358Z,11.76
2019-03-27T11:47:28.618Z,11.76
2019-03-27T11:48:29.402Z,11.85
2019-03-27T11:49:30.177Z,11.81
2019-03-27T11:50:46.384Z,11.81
2019-03-27T11:50:52.137Z,11.89
2019-03-27T11:51:53.137Z,11.63
2019-03-27T11:52:54.013Z,11.81
2019-03-27T11:53:53.872Z,11.83
2019-03-27T11:54:54.424Z,11.95
2019-03-27T11:55:59.304Z,11.88
2019-03-27T11:56:07.108Z,11.96
2019-03-27T11:57:05.578Z,11.99
2019-03-27T11:58:06.627Z,12.15
2019-03-27T11:59:07.757Z,12.21
2019-03-27T12:00:08.253Z,12.18
2019-03-27T12:01:09.032Z,12.17
2019-03-27T12:02:09.812Z,12.1
2019-03-27T12:03:10.616Z,12.17
2019-03-27T12:04:10.928Z,12.15
2019-03-27T12:05:11.721Z,12.21
2019-03-27T12:06:12.221Z,12.39
2019-03-27T12:07:13.044Z,12.39
2019-03-27T12:08:13.455Z,12.55
2019-03-27T12:09:14.075Z,12.68
2019-03-27T12:10:14.846Z,12.68
2019-03-27T12:11:14.900Z,12.81
2019-03-27T12:12:15.957Z,12.83
2019-03-27T12:13:17.084Z,12.98
2019-03-27T12:14:17.878Z,13.11
2019-03-27T12:15:18.411Z,13.13
2019-03-27T12:16:19.465Z,12.88
2019-03-27T12:17:19.709Z,12.87
2019-03-27T12:18:20.216Z,12.83
2019-03-27T12:19:21.269Z,12.93
2019-03-27T12:20:22.398Z,13.03
2019-03-27T12:21:22.617Z,13.09
2019-03-27T12:22:23.691Z,13.09
2019-03-27T12:23:24.542Z,13.02
2019-03-27T12:24:24.319Z,13.06
2019-03-27T12:25:25.218Z,12.93
2019-03-27T12:26:25.998Z,12.9
2019-03-27T12:27:26.821Z,12.81
2019-03-27T12:28:26.946Z,12.61
2019-03-27T12:29:27.551Z,12.65
2019-03-27T12:30:28.051Z,12.44
2019-03-27T12:31:28.821Z,12.54
2019-03-27T12:32:29.690Z,12.57
2019-03-27T12:33:30.643Z,12.36
2019-03-27T12:34:31.418Z,12.18
2019-03-27T12:35:32.469Z,12.17
2019-03-27T12:36:33.243Z,11.99
2019-03-27T12:37:34.256Z,11.86
2019-03-27T12:38:39.658Z,11.89
2019-03-27T12:38:48.729Z,11.89
2019-03-27T12:38:58.797Z,11.95
2019-03-27T12:39:56.607Z,11.93
2019-03-27T12:40:57.962Z,11.76
2019-03-27T12:41:57.767Z,11.85
2019-03-27T12:42:58.385Z,11.8
2019-03-27T12:44:01.046Z,11.95
2019-03-27T12:45:03.471Z,11.95
2019-03-27T12:46:03.803Z,12.05
2019-03-27T12:47:04.213Z,12.08
2019-03-27T12:48:05.011Z,12.2
2019-03-27T12:49:08.155Z,12.17
2019-03-27T12:50:06.802Z,12.17
2019-03-27T12:51:19.903Z,12.18
2019-03-27T12:52:18.531Z,12.2
2019-03-27T12:53:19.023Z,12.05
2019-03-27T12:54:19.818Z,12
2019-03-27T12:55:20.329Z,11.93
2019-03-27T12:56:23.418Z,11.96
2019-03-27T12:57:22.443Z,11.83
2019-03-27T12:58:22.943Z,11.86
2019-03-27T12:59:23.717Z,11.71
2019-03-27T13:00:24.604Z,11.63
2019-03-27T13:01:25.408Z,11.53
2019-03-27T13:02:26.641Z,11.35
2019-03-27T13:03:27.134Z,11.34
2019-03-27T13:04:27.908Z,11.44
2019-03-27T13:05:28.787Z,11.55
2019-03-27T13:06:29.133Z,11.6
2019-03-27T13:07:29.623Z,11.55
2019-03-27T13:08:31.181Z,11.51
2019-03-27T13:09:31.509Z,11.38
2019-03-27T13:10:32.000Z,11.2
2019-03-27T13:11:36.410Z,11.13
2019-03-27T13:12:33.575Z,10.95
2019-03-27T13:13:34.360Z,10.64
2019-03-27T13:14:35.126Z,10.59
2019-03-27T13:15:35.898Z,10.27
2019-03-27T13:16:37.021Z,10.28
2019-03-27T13:17:37.801Z,10.21
2019-03-27T13:18:39.340Z,10.15
2019-03-27T13:19:40.464Z,10.02
2019-03-27T13:20:41.255Z,10.09
2019-03-27T13:21:41.753Z,10.21
2019-03-27T13:22:43.320Z,10.27
2019-03-27T13:23:43.369Z,10.21
2019-03-27T13:24:44.151Z,10.25